Time;durP1;ratioP1;P1;durP2;ratioP2;P2;SDS_P1;SDS_P2;PMS_P1;PMS_P2;Temp;Humidity;BMP_temperature;BMP_pressure;BME280_temperature;BME280_humidity;BME280_pressure;Samples;Min_cycle;Max_cycle;Signal;HPM_P1;HPM_P2
2023/01/29 00:02:13;;;;;;;33.67;19.63;;;;;;;2.81;100.00;102741.47;4966686;28;20800;-76
2023/01/29 00:04:39;;;;;;;38.10;20.53;;;;;;;2.79;100.00;102739.56;4969490;28;21084;-76
2023/01/29 00:07:04;;;;;;;32.73;19.67;;;;;;;2.83;100.00;102749.19;4964050;28;20198;-76
2023/01/29 00:09:30;;;;;;;34.40;20.20;;;;;;;2.85;100.00;102751.06;4968521;28;20295;-76
2023/01/29 00:11:56;;;;;;;33.40;21.07;;;;;;;2.85;100.00;102748.53;4984304;28;20288;-76
2023/01/29 00:14:21;;;;;;;34.00;20.33;;;;;;;2.87;100.00;102747.03;4970369;28;20753;-76
2023/01/29 00:16:47;;;;;;;35.77;20.90;;;;;;;2.86;100.00;102735.16;4989325;28;20285;-79
2023/01/29 00:19:12;;;;;;;36.97;20.93;;;;;;;2.87;100.00;102733.50;4964553;28;20200;-77
2023/01/29 00:21:38;;;;;;;35.07;21.00;;;;;;;2.86;100.00;102729.22;4970651;28;20204;-76
2023/01/29 00:24:04;;;;;;;34.47;21.83;;;;;;;2.88;100.00;102717.56;4995221;28;20200;-77
2023/01/29 00:26:29;;;;;;;40.00;22.30;;;;;;;2.87;100.00;102713.25;4970028;28;20284;-77
2023/01/29 00:28:59;;;;;;;35.43;21.83;;;;;;;2.83;100.00;102704.56;4973746;28;20224;-76
2023/01/29 00:31:25;;;;;;;43.93;25.07;;;;;;;2.78;100.00;102704.94;4968294;28;20213;-76
2023/01/29 00:33:50;;;;;;;41.30;23.73;;;;;;;2.77;100.00;102703.19;4966779;28;20616;-77
2023/01/29 00:36:18;;;;;;;45.00;24.20;;;;;;;2.75;100.00;102700.53;4978403;28;20219;-76
2023/01/29 00:38:53;;;;;;;44.90;24.10;;;;;;;2.76;100.00;102703.94;4970465;28;20564;-75
2023/01/29 00:46:49;;;;;;;45.23;25.37;;;;;;;2.76;100.00;102691.31;4972130;28;20192;-76
2023/01/29 00:49:15;;;;;;;44.93;25.07;;;;;;;2.74;100.00;102693.72;4961579;28;20227;-75
2023/01/29 00:51:40;;;;;;;42.93;24.40;;;;;;;2.73;100.00;102684.34;4993399;28;20212;-76
2023/01/29 00:54:06;;;;;;;39.73;23.90;;;;;;;2.75;100.00;102682.81;4969420;28;20568;-76
2023/01/29 00:56:35;;;;;;;42.23;23.03;;;;;;;2.75;100.00;102682.81;4966969;28;20210;-76
2023/01/29 00:59:02;;;;;;;40.97;23.63;;;;;;;2.77;100.00;102686.38;4980300;28;20180;-77
2023/01/29 01:04:12;;;;;;;39.73;23.47;;;;;;;2.80;100.00;102685.72;4995144;28;20196;-76
2023/01/29 01:06:42;;;;;;;40.80;24.37;;;;;;;2.81;100.00;102687.50;4972197;28;20185;-76
2023/01/29 01:11:59;;;;;;;39.17;23.10;;;;;;;2.80;100.00;102694.19;4958226;28;20621;-76
2023/01/29 01:14:25;;;;;;;44.10;23.63;;;;;;;2.80;100.00;102693.31;4965408;28;20192;-76
2023/01/29 01:16:50;;;;;;;38.03;21.77;;;;;;;2.80;100.00;102694.19;4979633;28;20363;-76
2023/01/29 01:19:16;;;;;;;38.50;23.17;;;;;;;2.81;100.00;102690.88;4967805;28;20274;-76
2023/01/29 01:21:47;;;;;;;41.00;23.10;;;;;;;2.84;100.00;102705.41;4990907;28;20212;-76
2023/01/29 01:24:13;;;;;;;38.37;21.97;;;;;;;2.87;100.00;102703.16;4974011;28;20206;-75
2023/01/29 01:26:38;;;;;;;45.50;23.30;;;;;;;2.87;100.00;102705.69;4971635;28;20196;-75
2023/01/29 01:29:04;;;;;;;39.67;22.43;;;;;;;2.87;100.00;102700.63;4973379;28;20196;-76
2023/01/29 01:31:29;;;;;;;39.63;22.87;;;;;;;2.87;100.00;102688.88;4977007;28;20212;-76
2023/01/29 01:33:55;;;;;;;38.30;22.50;;;;;;;2.85;100.00;102687.84;4979111;28;20220;-75
2023/01/29 01:36:20;;;;;;;42.77;24.47;;;;;;;2.84;100.00;102686.09;4969789;28;20351;-76
2023/01/29 01:38:46;;;;;;;42.17;23.13;;;;;;;2.79;100.00;102686.47;4973994;28;20195;-75
2023/01/29 01:41:14;;;;;;;41.90;25.03;;;;;;;2.79;100.00;102687.38;4976837;28;20569;-76
2023/01/29 01:43:57;;;;;;;44.23;24.40;;;;;;;2.81;100.00;102687.50;4969160;28;20650;-76
2023/01/29 01:46:24;;;;;;;45.70;25.20;;;;;;;2.81;100.00;102693.41;4965945;28;20207;-76
2023/01/29 01:48:56;;;;;;;43.53;24.80;;;;;;;2.81;100.00;102693.41;4973417;28;20282;-78
2023/01/29 01:51:25;;;;;;;44.23;25.00;;;;;;;2.78;100.00;102700.78;4952703;28;20219;-75
2023/01/29 01:54:02;;;;;;;41.37;22.73;;;;;;;2.84;100.00;102700.34;4972291;28;20200;-76
2023/01/29 01:56:37;;;;;;;43.10;23.63;;;;;;;2.82;100.00;102692.69;4967902;28;20231;-76
2023/01/29 01:59:06;;;;;;;45.93;24.73;;;;;;;2.80;100.00;102691.66;4979058;28;20601;-76
2023/01/29 02:01:32;;;;;;;42.67;24.33;;;;;;;2.81;100.00;102692.56;4964632;28;20786;-76
2023/01/29 02:09:39;;;;;;;43.07;23.70;;;;;;;2.84;100.00;102688.63;4968209;28;20239;-75
2023/01/29 02:12:09;;;;;;;42.30;24.23;;;;;;;2.83;100.00;102685.97;4975202;28;20191;-76
2023/01/29 02:14:38;;;;;;;43.40;24.87;;;;;;;2.84;100.00;102680.13;4974065;28;20651;-75
2023/01/29 02:17:10;;;;;;;41.30;24.83;;;;;;;2.82;100.00;102684.19;4974831;28;20270;-76
2023/01/29 02:19:47;;;;;;;45.53;26.73;;;;;;;2.85;100.00;102687.84;4973784;28;20247;-76
2023/01/29 02:22:31;;;;;;;44.60;23.70;;;;;;;2.86;100.00;102683.69;4971197;28;20680;-76
2023/01/29 02:25:15;;;;;;;42.57;23.63;;;;;;;2.87;100.00;102680.38;4970105;28;20211;-76
2023/01/29 02:27:47;;;;;;;40.17;23.57;;;;;;;2.88;100.00;102677.09;4971789;28;20204;-76
2023/01/29 02:30:28;;;;;;;41.60;24.93;;;;;;;2.87;100.00;102671.16;4973766;28;20306;-75
2023/01/29 02:33:32;;;;;;;41.20;23.13;;;;;;;2.89;100.00;102666.22;4974773;28;20274;-75
2023/01/29 02:36:10;;;;;;;39.73;22.13;;;;;;;2.91;100.00;102664.69;4981037;28;20262;-77
2023/01/29 02:38:41;;;;;;;39.83;22.97;;;;;;;2.90;100.00;102655.34;4967772;28;20556;-77
2023/01/29 02:41:15;;;;;;;39.63;22.87;;;;;;;2.89;100.00;102659.50;4989624;28;20303;-76
2023/01/29 02:43:51;;;;;;;41.83;23.27;;;;;;;2.87;100.00;102657.63;4975058;28;20189;-76
2023/01/29 02:46:29;;;;;;;42.33;23.90;;;;;;;2.86;100.00;102663.44;4975316;28;20287;-76
2023/01/29 02:49:24;;;;;;;46.97;24.17;;;;;;;2.88;100.00;102667.88;4967722;28;20724;-76
2023/01/29 02:52:08;;;;;;;44.23;24.50;;;;;;;2.89;100.00;102668.75;4975398;28;20871;-76
2023/01/29 02:54:46;;;;;;;43.90;24.00;;;;;;;2.88;100.00;102659.38;4976680;28;20188;-76
2023/01/29 02:57:31;;;;;;;39.57;23.43;;;;;;;2.90;100.00;102660.41;4966275;28;20401;-76
2023/01/29 03:00:15;;;;;;;44.03;23.20;;;;;;;2.88;100.00;102651.78;4975617;28;20307;-76
2023/01/29 03:03:05;;;;;;;41.53;23.10;;;;;;;2.86;100.00;102640.69;4989131;28;20216;-75
2023/01/29 03:05:42;;;;;;;40.10;22.20;;;;;;;2.87;100.00;102642.44;4966323;28;20256;-77
2023/01/29 03:08:14;;;;;;;44.67;23.47;;;;;;;2.87;100.00;102638.28;4971614;28;20668;-76
2023/01/29 03:10:51;;;;;;;45.43;24.37;;;;;;;2.87;100.00;102628.16;4982668;28;20635;-78
2023/01/29 03:13:22;;;;;;;43.47;23.50;;;;;;;2.89;100.00;102625.75;4969501;28;20677;-76
2023/01/29 03:16:00;;;;;;;42.47;22.30;;;;;;;2.86;100.00;102612.88;4976797;28;20220;-75
2023/01/29 03:18:44;;;;;;;39.13;22.53;;;;;;;2.83;100.00;102608.44;4956400;28;20567;-75
2023/01/29 03:32:38;;;;;;;32.03;19.73;;;;;;;2.88;100.00;102591.09;4968992;28;20597;-76
2023/01/29 03:35:06;;;;;;;35.10;20.63;;;;;;;2.86;100.00;102596.06;4975755;28;20230;-76
2023/01/29 03:37:45;;;;;;;35.10;19.90;;;;;;;2.86;100.00;102595.16;4975012;28;20248;-75
2023/01/29 03:40:12;;;;;;;32.80;20.03;;;;;;;2.85;100.00;102591.75;4965580;28;20696;-77
2023/01/29 03:42:47;;;;;;;39.00;20.83;;;;;;;2.88;100.00;102597.03;4974475;28;20207;-77
2023/01/29 03:45:13;;;;;;;34.90;19.70;;;;;;;2.90;100.00;102592.13;4973130;28;20215;-77
2023/01/29 03:48:21;;;;;;;30.80;18.80;;;;;;;2.90;100.00;102597.16;4971364;28;20188;-76
2023/01/29 03:51:09;;;;;;;28.80;17.83;;;;;;;2.89;100.00;102593.75;4994038;28;20566;-77
2023/01/29 03:53:44;;;;;;;31.90;19.43;;;;;;;2.88;100.00;102584.41;4962411;28;20553;-77
2023/01/29 03:56:44;;;;;;;33.27;19.10;;;;;;;2.83;100.00;102590.75;4977909;28;20218;-80
2023/01/29 03:59:24;;;;;;;31.63;18.53;;;;;;;2.84;100.00;102587.44;4962589;28;20219;-78
2023/01/29 04:02:26;;;;;;;31.97;18.67;;;;;;;2.83;100.00;102580.63;4963011;28;20199;-78
2023/01/29 04:04:57;;;;;;;34.10;18.70;;;;;;;2.83;100.00;102578.09;4979329;28;20677;-77
2023/01/29 04:07:24;;;;;;;35.50;18.67;;;;;;;2.86;100.00;102580.88;4978049;28;20899;-77
2023/01/29 04:10:13;;;;;;;31.13;17.70;;;;;;;2.86;100.00;102578.34;4979144;28;20610;-77
2023/01/29 04:12:44;;;;;;;31.43;17.57;;;;;;;2.87;100.00;102572.53;4988397;28;20647;-77
2023/01/29 04:15:14;;;;;;;33.97;18.63;;;;;;;2.86;100.00;102569.88;4958182;28;20585;-78
2023/01/29 04:17:45;;;;;;;31.57;17.73;;;;;;;2.89;100.00;102565.06;4991203;28;20295;-78
2023/01/29 04:20:20;;;;;;;29.43;17.63;;;;;;;2.90;100.00;102556.69;4965196;28;20212;-77
2023/01/29 04:22:48;;;;;;;33.60;18.70;;;;;;;2.90;100.00;102556.69;4955417;28;20189;-77
2023/01/29 04:25:25;;;;;;;29.27;17.23;;;;;;;2.90;100.00;102546.59;4968067;28;20197;-77
2023/01/29 04:28:07;;;;;;;31.67;17.40;;;;;;;2.90;100.00;102552.50;4972410;28;20184;-77
2023/01/29 04:30:51;;;;;;;33.80;18.93;;;;;;;2.88;100.00;102548.09;4987584;28;20251;-77
2023/01/29 04:33:24;;;;;;;31.80;18.90;;;;;;;2.88;100.00;102543.94;4975861;28;20211;-77
2023/01/29 04:36:05;;;;;;;36.67;19.73;;;;;;;2.88;100.00;102546.47;4966537;28;20217;-77
2023/01/29 04:38:45;;;;;;;32.90;18.93;;;;;;;2.90;100.00;102547.44;4972499;28;20200;-77
2023/01/29 04:41:20;;;;;;;29.93;17.80;;;;;;;2.92;100.00;102551.00;4980494;28;20239;-78
2023/01/29 04:43:52;;;;;;;33.47;17.90;;;;;;;2.94;100.00;102551.13;4966600;28;20188;-77
2023/01/29 04:46:39;;;;;;;31.87;18.33;;;;;;;2.94;100.00;102554.50;4978011;28;20215;-77
2023/01/29 04:49:44;;;;;;;32.73;18.40;;;;;;;2.96;100.00;102557.16;4975607;28;20208;-77
2023/01/29 04:52:30;;;;;;;34.00;19.90;;;;;;;2.96;100.00;102562.22;4983207;28;20196;-77
2023/01/29 04:55:17;;;;;;;33.97;19.23;;;;;;;2.96;100.00;102570.72;4979706;28;20692;-78
2023/01/29 04:58:11;;;;;;;33.07;19.57;;;;;;;2.96;100.00;102572.34;4976375;28;20700;-77
2023/01/29 05:00:43;;;;;;;32.40;18.47;;;;;;;2.98;100.00;102573.31;4975352;28;20215;-77
2023/01/29 05:03:12;;;;;;;35.23;20.90;;;;;;;2.96;100.00;102569.81;4972535;28;20219;-77
2023/01/29 05:05:41;;;;;;;37.23;20.97;;;;;;;2.97;100.00;102579.16;4973650;28;20633;-78
2023/01/29 05:08:08;;;;;;;37.77;20.47;;;;;;;2.96;100.00;102588.41;4974745;28;20212;-77
2023/01/29 05:10:34;;;;;;;36.20;20.77;;;;;;;2.95;100.00;102584.09;4971311;28;20279;-77
2023/01/29 05:13:05;;;;;;;38.43;21.43;;;;;;;2.97;100.00;102575.00;4973433;28;20291;-77
2023/01/29 05:15:37;;;;;;;38.50;21.40;;;;;;;2.96;100.00;102578.28;4971737;28;20195;-78
2023/01/29 05:18:07;;;;;;;41.03;20.70;;;;;;;2.94;100.00;102563.75;4967898;28;20250;-77
2023/01/29 05:20:35;;;;;;;34.23;21.13;;;;;;;2.93;100.00;102569.56;4969721;28;20432;-78
2023/01/29 05:23:01;;;;;;;40.97;23.23;;;;;;;2.89;100.00;102570.13;4968705;28;20210;-78
2023/01/29 05:25:29;;;;;;;42.90;22.33;;;;;;;2.91;100.00;102577.06;4969120;28;20683;-78
2023/01/29 05:28:05;;;;;;;42.27;23.10;;;;;;;2.90;100.00;102554.16;4969644;28;20231;-77
2023/01/29 05:30:36;;;;;;;41.87;24.00;;;;;;;2.87;100.00;102548.88;4963842;28;20227;-76
2023/01/29 05:33:02;;;;;;;49.07;25.90;;;;;;;2.85;100.00;102558.00;4979441;28;20195;-77
2023/01/29 05:35:28;;;;;;;46.70;25.40;;;;;;;2.83;100.00;102550.28;4977495;28;20556;-77
2023/01/29 05:37:57;;;;;;;45.30;26.27;;;;;;;2.82;100.00;102561.19;4971278;28;20244;-78
2023/01/29 05:40:23;;;;;;;51.83;26.77;;;;;;;2.83;100.00;102551.91;4969136;28;20220;-77
2023/01/29 05:42:49;;;;;;;46.90;26.63;;;;;;;2.81;100.00;102563.56;4976374;28;20195;-78
2023/01/29 05:45:16;;;;;;;45.33;25.57;;;;;;;2.80;100.00;102567.75;4977555;28;20604;-77
2023/01/29 05:47:41;;;;;;;50.93;27.33;;;;;;;2.80;100.00;102544.97;4991821;28;20188;-76
2023/01/29 05:50:08;;;;;;;47.93;26.17;;;;;;;2.80;100.00;102550.03;4971151;28;20226;-76
2023/01/29 05:52:33;;;;;;;46.73;26.30;;;;;;;2.78;100.00;102554.09;4969908;28;20212;-78
2023/01/29 05:54:59;;;;;;;50.67;25.90;;;;;;;2.78;100.00;102541.47;4977666;28;21520;-77
2023/01/29 05:57:24;;;;;;;46.40;26.23;;;;;;;2.81;100.00;102549.25;4973725;28;20238;-77
2023/01/29 05:59:49;;;;;;;47.67;24.67;;;;;;;2.83;100.00;102547.75;4969262;28;20193;-76
2023/01/29 06:02:15;;;;;;;44.70;24.63;;;;;;;2.79;100.00;102553.34;4972578;28;20208;-78
2023/01/29 06:04:40;;;;;;;44.57;26.23;;;;;;;2.78;100.00;102554.09;4973278;28;20204;-77
2023/01/29 06:07:06;;;;;;;44.37;25.17;;;;;;;2.79;100.00;102565.97;4968422;28;20537;-76
2023/01/29 06:09:31;;;;;;;45.70;25.73;;;;;;;2.81;100.00;102576.22;4976556;28;20280;-77
2023/01/29 06:11:57;;;;;;;42.53;24.20;;;;;;;2.82;100.00;102577.97;4971272;28;20203;-78
2023/01/29 06:14:22;;;;;;;37.67;22.13;;;;;;;2.80;100.00;102571.94;4979965;28;20192;-77
2023/01/29 06:16:48;;;;;;;38.57;23.40;;;;;;;2.82;100.00;102583.03;4967527;28;20252;-76
2023/01/29 06:19:13;;;;;;;43.33;23.93;;;;;;;2.79;100.00;102581.16;4968238;28;20204;-77
2023/01/29 06:21:38;;;;;;;44.10;23.90;;;;;;;2.78;100.00;102563.31;4969637;28;20274;-77
2023/01/29 06:24:05;;;;;;;42.80;22.27;;;;;;;2.77;100.00;102556.50;4973204;28;20216;-78
2023/01/29 06:26:31;;;;;;;40.43;21.90;;;;;;;2.74;100.00;102546.16;4970742;28;20603;-77
2023/01/29 06:28:56;;;;;;;41.70;22.87;;;;;;;2.72;100.00;102547.69;4976910;28;20677;-77
2023/01/29 06:31:22;;;;;;;42.40;22.77;;;;;;;2.69;100.00;102537.31;4973394;28;20307;-77
2023/01/29 06:33:47;;;;;;;41.47;22.63;;;;;;;2.67;100.00;102514.44;4969390;28;20204;-77
2023/01/29 06:36:13;;;;;;;44.63;23.60;;;;;;;2.62;100.00;102515.75;4982252;28;20263;-76
2023/01/29 06:38:38;;;;;;;41.40;23.13;;;;;;;2.59;100.00;102535.75;4969303;28;20568;-77
2023/01/29 06:41:12;;;;;;;41.33;22.17;;;;;;;2.57;100.00;102529.66;4992968;28;20250;-77
2023/01/29 06:43:38;;;;;;;39.77;21.63;;;;;;;2.57;100.00;102536.41;4969383;28;20196;-77
2023/01/29 06:46:06;;;;;;;42.37;21.93;;;;;;;2.56;100.00;102538.03;4975828;28;20661;-77
2023/01/29 06:48:32;;;;;;;41.93;22.77;;;;;;;2.53;100.00;102531.84;4971243;28;20211;-77
2023/01/29 06:51:02;;;;;;;42.80;22.23;;;;;;;2.51;100.00;102518.19;4987999;28;20605;-77
2023/01/29 06:53:28;;;;;;;36.40;21.17;;;;;;;2.51;100.00;102515.66;4972119;28;20196;-76
2023/01/29 06:55:53;;;;;;;39.90;21.87;;;;;;;2.51;100.00;102515.66;4973835;28;20195;-77
2023/01/29 06:58:19;;;;;;;38.73;20.97;;;;;;;2.50;100.00;102504.69;4969933;28;20653;-77
2023/01/29 07:00:45;;;;;;;41.87;21.27;;;;;;;2.46;100.00;102500.16;4969094;28;20220;-77
2023/01/29 07:03:11;;;;;;;38.47;22.27;;;;;;;2.43;100.00;102492.34;4967259;28;20206;-78
2023/01/29 07:05:37;;;;;;;36.17;20.70;;;;;;;2.44;100.00;102483.97;4965699;28;20287;-78
2023/01/29 07:08:03;;;;;;;39.10;22.07;;;;;;;2.40;100.00;102484.53;4967315;28;20275;-77
2023/01/29 07:10:29;;;;;;;39.47;22.73;;;;;;;2.38;100.00;102492.72;4966112;28;20582;-77
2023/01/29 07:12:54;;;;;;;36.50;21.57;;;;;;;2.37;100.00;102488.44;4974136;28;20192;-76
2023/01/29 07:15:20;;;;;;;40.20;23.10;;;;;;;2.36;100.00;102499.31;4975835;28;20203;-77
2023/01/29 07:18:15;;;;;;;36.33;20.00;;;;;;;2.34;100.00;102495.81;4972097;28;20228;-77
2023/01/29 07:20:42;;;;;;;36.63;21.73;;;;;;;2.33;100.00;102494.00;4955340;28;20276;-77
2023/01/29 07:23:16;;;;;;;35.47;20.70;;;;;;;2.34;100.00;102489.09;4974515;28;20203;-78
2023/01/29 07:25:42;;;;;;;39.13;22.23;;;;;;;2.34;100.00;102489.09;4969901;28;20581;-78
2023/01/29 07:28:08;;;;;;;35.23;21.07;;;;;;;2.34;100.00;102488.22;4977586;28;20202;-77
2023/01/29 07:30:34;;;;;;;39.53;21.23;;;;;;;2.36;100.00;102504.38;4986830;28;20219;-79
2023/01/29 07:33:01;;;;;;;36.77;20.77;;;;;;;2.39;100.00;102502.97;4983724;28;20295;-77
2023/01/29 07:35:27;;;;;;;39.10;21.87;;;;;;;2.38;100.00;102496.16;4989349;28;20204;-77
2023/01/29 07:37:52;;;;;;;38.83;21.77;;;;;;;2.40;100.00;102494.66;4973243;28;20635;-77
2023/01/29 07:40:18;;;;;;;42.13;20.90;;;;;;;2.42;100.00;102492.22;4951158;28;20286;-77
2023/01/29 07:42:43;;;;;;;33.63;20.47;;;;;;;2.43;100.00;102489.81;4970655;28;21119;-77
2023/01/29 07:45:09;;;;;;;35.40;21.27;;;;;;;2.46;100.00;102491.69;4971095;28;20192;-77
2023/01/29 07:47:35;;;;;;;37.40;22.00;;;;;;;2.49;100.00;102479.31;4984595;28;20196;-77
2023/01/29 07:50:00;;;;;;;40.03;22.63;;;;;;;2.49;100.00;102464.13;4972268;28;20222;-77
2023/01/29 07:52:29;;;;;;;37.77;21.53;;;;;;;2.49;100.00;102456.56;4967796;28;20201;-76
2023/01/29 07:54:54;;;;;;;38.53;21.93;;;;;;;2.48;100.00;102458.19;4970413;28;20295;-77
2023/01/29 07:57:20;;;;;;;38.77;22.03;;;;;;;2.54;100.00;102465.38;4965484;28;20748;-77
2023/01/29 07:59:45;;;;;;;39.40;22.57;;;;;;;2.56;100.00;102469.78;4965767;28;20595;-76
2023/01/29 08:02:12;;;;;;;43.23;24.40;;;;;;;2.57;100.00;102465.63;4966154;28;20521;-77
2023/01/29 08:04:37;;;;;;;39.00;22.00;;;;;;;2.58;100.00;102462.31;4971127;28;20235;-77
2023/01/29 08:07:03;;;;;;;40.03;22.40;;;;;;;2.57;100.00;102466.47;4978170;28;20219;-76
2023/01/29 08:09:29;;;;;;;38.70;24.03;;;;;;;2.61;100.00;102458.38;4974818;28;20199;-78
2023/01/29 08:11:55;;;;;;;41.73;24.63;;;;;;;2.61;100.00;102442.31;4977889;28;20224;-77
2023/01/29 08:14:22;;;;;;;41.80;24.03;;;;;;;2.67;100.00;102440.25;4976894;28;20196;-77
2023/01/29 08:16:47;;;;;;;39.50;22.97;;;;;;;2.73;100.00;102446.66;4976262;28;20220;-77
2023/01/29 08:19:13;;;;;;;38.13;22.50;;;;;;;2.76;100.00;102448.56;4971466;28;20216;-78
2023/01/29 08:21:47;;;;;;;37.37;23.30;;;;;;;2.79;100.00;102461.41;5002385;23;20312;-83
2023/01/29 08:24:51;;;;;;;36.60;21.83;;;;;;;2.81;100.00;102450.63;5033798;28;20203;-83
2023/01/29 08:27:33;;;;;;;36.07;22.33;;;;;;;2.78;100.00;102450.44;5014235;28;20242;-83
2023/01/29 08:30:02;;;;;;;55.03;26.23;;;;;;;2.79;100.00;102461.41;5016529;28;20188;-83
2023/01/29 08:32:27;;;;;;;48.67;25.87;;;;;;;2.83;100.00;102454.19;5025541;28;20235;-83
2023/01/29 08:34:58;;;;;;;44.90;25.07;;;;;;;2.93;100.00;102453.22;5006910;28;20192;-83
2023/01/29 08:37:51;;;;;;;43.77;25.23;;;;;;;2.90;100.00;102463.97;4966646;28;20232;-82
2023/01/29 08:40:49;;;;;;;49.30;27.30;;;;;;;2.87;100.00;102457.81;4985323;28;20705;-80
2023/01/29 08:43:40;;;;;;;48.07;27.60;;;;;;;2.93;100.00;102453.22;4957882;28;20202;-83
2023/01/29 08:46:22;;;;;;;48.03;26.30;;;;;;;2.92;100.00;102459.94;4974816;28;20702;-83
2023/01/29 08:48:54;;;;;;;47.17;27.73;;;;;;;2.94;100.00;102472.72;4961954;28;20233;-82
2023/01/29 08:51:29;;;;;;;49.83;29.03;;;;;;;2.95;100.00;102466.88;4964573;28;20211;-83
2023/01/29 08:54:18;;;;;;;53.30;29.67;;;;;;;2.99;100.00;102462.16;4978802;28;20183;-82
2023/01/29 08:56:47;;;;;;;53.07;30.30;;;;;;;2.98;100.00;102455.34;4960600;28;20235;-82
2023/01/29 08:59:13;;;;;;;49.53;28.97;;;;;;;3.01;100.00;102457.22;4963829;28;20682;-83
2023/01/29 09:02:34;;;;;;;;;;;;;;;;;;;;;
2023/01/29 09:05:07;;;;;;;52.37;29.53;;;;;;;3.12;100.00;102459.78;4975810;28;20267;-82
2023/01/29 09:07:36;;;;;;;59.10;30.97;;;;;;;3.16;100.00;102455.81;4963100;28;20259;-82
2023/01/29 09:10:05;;;;;;;53.40;30.27;;;;;;;3.22;100.00;102454.63;5017345;28;20216;-82
2023/01/29 09:12:34;;;;;;;56.77;32.43;;;;;;;3.17;100.00;102455.94;5011645;28;20206;-82
2023/01/29 09:15:06;;;;;;;63.03;32.57;;;;;;;3.21;100.00;102450.34;4999049;28;20229;-82
2023/01/29 09:18:11;;;;;;;;;;;;;;;;;;;;;
2023/01/29 09:20:57;;;;;;;64.60;34.10;;;;;;;3.28;100.00;102457.63;5030266;28;20195;-81
2023/01/29 09:23:26;;;;;;;65.30;34.03;;;;;;;3.28;100.00;102451.69;4999444;28;20203;-82
2023/01/29 09:25:54;;;;;;;61.90;34.50;;;;;;;3.29;100.00;102441.66;5013507;28;20307;-82
2023/01/29 09:28:27;;;;;;;64.57;34.90;;;;;;;3.31;100.00;102440.13;4998205;28;20836;-82
2023/01/29 09:31:12;;;;;;;70.80;36.17;;;;;;;3.37;100.00;102438.06;4997722;28;20219;-82
2023/01/29 09:33:43;;;;;;;67.70;36.80;;;;;;;3.44;100.00;102441.88;4998155;28;20202;-83
2023/01/29 09:36:44;;;;;;;67.37;34.73;;;;;;;3.49;100.00;102433.00;5010885;28;20665;-82
2023/01/29 09:39:45;;;;;;;66.73;34.60;;;;;;;3.50;100.00;102419.56;5000413;28;20213;-81
2023/01/29 09:42:48;;;;;;;68.63;36.50;;;;;;;3.45;100.00;102423.44;5022771;28;20736;-81
2023/01/29 09:45:30;;;;;;;75.53;38.47;;;;;;;3.52;100.00;102412.97;4999912;28;20671;-83
2023/01/29 09:48:22;;;;;;;71.13;35.43;;;;;;;3.66;100.00;102408.13;5011405;28;20238;-81
2023/01/29 09:50:54;;;;;;;73.77;37.23;;;;;;;3.69;100.00;102407.47;5028782;28;20199;-82
2023/01/29 09:53:37;;;;;;;70.00;36.57;;;;;;;3.74;100.00;102407.03;4997658;28;20442;-82
2023/01/29 09:56:10;;;;;;;72.63;36.60;;;;;;;3.67;100.00;102399.75;5029334;28;20673;-83
2023/01/29 09:58:43;;;;;;;70.40;37.47;;;;;;;3.75;100.00;102398.66;4996907;28;20211;-82
2023/01/29 10:01:27;;;;;;;67.43;35.00;;;;;;;3.79;100.00;102394.69;5016975;28;20671;-81
2023/01/29 10:04:25;;;;;;;67.37;37.97;;;;;;;3.73;100.00;102384.13;5011132;28;20636;-82
2023/01/29 10:07:54;;;;;;;70.50;36.70;;;;;;;3.81;100.00;102367.78;5014156;28;20716;-81
2023/01/29 10:10:41;;;;;;;68.57;37.73;;;;;;;3.80;100.00;102364.41;4991164;28;20420;-81
2023/01/29 10:13:40;;;;;;;80.97;37.47;;;;;;;3.87;100.00;102360.66;5008535;28;20199;-83
2023/01/29 10:20:16;;;;;;;69.30;36.83;;;;;;;3.97;100.00;102355.44;5019348;28;20198;-82
2023/01/29 10:23:34;;;;;;;70.20;38.33;;;;;;;3.95;100.00;102354.47;5032106;28;20736;-81
2023/01/29 10:26:17;;;;;;;66.80;36.40;;;;;;;4.06;100.00;102343.41;4982356;28;20183;-82
2023/01/29 10:29:22;;;;;;;65.50;36.73;;;;;;;4.00;100.00;102343.00;5008559;28;20300;-81
2023/01/29 10:36:41;;;;;;;66.33;36.30;;;;;;;3.95;100.00;102337.59;4971327;28;20222;-83
2023/01/29 10:39:44;;;;;;;66.07;36.87;;;;;;;3.98;100.00;102325.16;4975011;28;20237;-82
2023/01/29 10:47:08;;;;;;;69.67;37.03;;;;;;;3.97;100.00;102313.25;5008624;28;20218;-83
2023/01/29 10:49:45;;;;;;;68.27;37.20;;;;;;;3.99;100.00;102301.56;5020363;28;20191;-84
2023/01/29 10:52:14;;;;;;;63.50;36.30;;;;;;;4.00;100.00;102298.25;4989624;28;20206;-82
2023/01/29 10:55:33;;;;;;;61.57;35.33;;;;;;;4.01;100.00;102301.69;5010092;28;20198;-83
2023/01/29 10:58:14;;;;;;;65.47;38.00;;;;;;;4.11;100.00;102299.00;5033907;23;20291;-70
2023/01/29 11:00:40;;;;;;;61.77;35.40;;;;;;;4.09;100.00;102298.03;5027098;28;20205;-70
2023/01/29 11:03:25;;;;;;;59.97;34.67;;;;;;;4.06;100.00;102290.19;5025207;28;20202;-73
2023/01/29 11:05:57;;;;;;;60.33;34.07;;;;;;;4.12;100.00;102288.97;5027416;28;20596;-72
2023/01/29 11:08:27;;;;;;;58.47;35.07;;;;;;;4.11;100.00;102299.00;5030056;28;20233;-72
2023/01/29 11:11:20;;;;;;;56.57;33.40;;;;;;;4.08;100.00;102287.00;5024803;28;20222;-72
2023/01/29 11:13:57;;;;;;;54.90;34.07;;;;;;;4.01;100.00;102292.41;5021730;28;20201;-73
2023/01/29 11:16:23;;;;;;;49.27;29.73;;;;;;;4.05;100.00;102291.84;5007835;28;20512;-73
2023/01/29 11:18:55;;;;;;;51.53;31.17;;;;;;;4.11;100.00;102276.19;5029052;28;20202;-72
2023/01/29 11:21:21;;;;;;;47.53;30.87;;;;;;;4.09;100.00;102285.34;5025489;28;20238;-72
2023/01/29 11:23:46;;;;;;;47.03;29.73;;;;;;;4.08;100.00;102279.38;5024805;28;20226;-71
2023/01/29 11:26:18;;;;;;;53.33;32.67;;;;;;;4.10;100.00;102276.97;5025307;28;20285;-72
2023/01/29 11:28:48;;;;;;;49.40;30.77;;;;;;;4.14;100.00;102281.47;5028921;28;20233;-71
2023/01/29 11:31:25;;;;;;;48.17;28.93;;;;;;;4.10;100.00;102280.34;5036369;28;20221;-71
2023/01/29 11:34:12;;;;;;;48.40;29.37;;;;;;;4.15;100.00;102288.28;5033949;28;20232;-71
2023/01/29 11:36:38;;;;;;;47.43;28.70;;;;;;;4.09;100.00;102285.34;5017706;28;20694;-71
2023/01/29 11:39:14;;;;;;;45.33;28.57;;;;;;;4.02;100.00;102276.44;5032711;28;20256;-72
2023/01/29 11:41:52;;;;;;;44.70;28.63;;;;;;;4.06;100.00;102268.28;5028786;28;20598;-71
2023/01/29 11:44:19;;;;;;;42.73;28.40;;;;;;;4.07;100.00;102262.44;5030321;28;20208;-72
2023/01/29 11:46:47;;;;;;;46.57;28.63;;;;;;;4.09;100.00;102254.94;5023615;28;20545;-71
2023/01/29 11:49:33;;;;;;;47.43;28.97;;;;;;;4.09;100.00;102245.66;5028084;28;20196;-70
2023/01/29 11:52:06;;;;;;;40.77;26.60;;;;;;;4.15;100.00;102240.13;5031210;28;20210;-70
2023/01/29 11:54:42;;;;;;;48.63;28.00;;;;;;;4.12;100.00;102247.53;5028743;28;20202;-70
2023/01/29 11:57:32;;;;;;;43.37;26.57;;;;;;;4.15;100.00;102235.94;5035332;28;20217;-71
2023/01/29 12:00:29;;;;;;;44.87;26.77;;;;;;;4.14;100.00;102238.38;5040564;28;20191;-70
2023/01/29 12:03:15;;;;;;;40.47;26.10;;;;;;;4.08;100.00;102227.81;5028803;28;20213;-70
2023/01/29 12:05:52;;;;;;;41.87;25.33;;;;;;;4.10;100.00;102223.75;5032487;28;20195;-70
2023/01/29 12:08:18;;;;;;;40.37;24.70;;;;;;;4.10;100.00;102223.75;5025072;28;20190;-69
2023/01/29 12:10:43;;;;;;;41.00;25.63;;;;;;;4.14;100.00;102213.91;5020224;28;20588;-70
2023/01/29 12:13:14;;;;;;;37.23;24.47;;;;;;;4.11;100.00;102211.19;5029697;28;20245;-72
2023/01/29 12:15:41;;;;;;;39.47;25.83;;;;;;;4.18;100.00;102207.41;5020597;28;20206;-74
2023/01/29 12:18:15;;;;;;;39.83;26.53;;;;;;;4.12;100.00;102206.97;5023907;28;20222;-71
2023/01/29 12:20:53;;;;;;;40.93;25.30;;;;;;;4.13;100.00;102203.66;5025762;28;20264;-71
2023/01/29 12:23:39;;;;;;;40.93;26.27;;;;;;;4.19;100.00;102201.56;5029866;28;20242;-70
2023/01/29 12:26:14;;;;;;;42.17;26.90;;;;;;;4.20;100.00;102199.13;5026376;28;20194;-69